<?xml version="1.0" encoding="UTF-8" standalone="no" ?>
<gpx xmlns="http://www.topografix.com/GPX/1/1" xmlns:xsi="http://www.w3.org/2001/XMLSchema-instance" xsi:schemaLocation="http://www.topografix.com/GPX/1/1 http://www.topografix.com/GPX/1/1/gpx.xsd" version="1.1" creator="VisuGPX - https://www.visugpx.com">
  <metadata>
    <name>Le Col de la Seigne</name>
    <desc><![CDATA[Ville des glaciers col de seigneur étape trois]]></desc>
  </metadata>
  <wpt lat="45.72801" lon="6.7677">
    <ele>1787</ele>
    <name><![CDATA[Parking de la Ville des Glaciers (1789m)]]></name>
  </wpt>
  <wpt lat="45.72724" lon="6.76895">
    <ele>1785</ele>
    <name><![CDATA[Passerelle sur le torrent]]></name>
  </wpt>
  <wpt lat="45.73581" lon="6.77819">
    <ele>1875</ele>
    <name><![CDATA[Partir sur le sentier à droite avant le >]]></name>
  </wpt>
  <wpt lat="45.73596" lon="6.78447">
    <ele>2074</ele>
    <name><![CDATA[Ignorer le sentier de l'Ouillon]]></name>
  </wpt>
  <wpt lat="45.72801" lon="6.7677">
    <ele>1787</ele>
    <name><![CDATA[Parking de la Ville des Glaciers (1789m)]]></name>
  </wpt>
  <trk>
    <name><![CDATA[Le Col de la Seigne]]></name>
    <trkseg>
      <trkpt lat="45.72801" lon="6.7677">
        <ele>1787</ele>
        <time>2021-05-11T11:26:18+02:00</time>
      </trkpt>
      <trkpt lat="45.72771" lon="6.76732">
        <ele>1787</ele>
        <time>2021-05-11T11:26:23+02:00</time>
      </trkpt>
      <trkpt lat="45.72739" lon="6.76742">
        <ele>1783</ele>
        <time>2021-05-11T11:26:28+02:00</time>
      </trkpt>
      <trkpt lat="45.72745" lon="6.76763">
        <ele>1782</ele>
        <time>2021-05-11T11:26:33+02:00</time>
      </trkpt>
      <trkpt lat="45.72724" lon="6.76895">
        <ele>1785</ele>
        <time>2021-05-11T11:26:38+02:00</time>
      </trkpt>
      <trkpt lat="45.72737" lon="6.76908">
        <ele>1785</ele>
        <time>2021-05-11T11:26:43+02:00</time>
      </trkpt>
      <trkpt lat="45.72801" lon="6.76961">
        <ele>1792</ele>
        <time>2021-05-11T11:26:48+02:00</time>
      </trkpt>
      <trkpt lat="45.72825" lon="6.76966">
        <ele>1791</ele>
        <time>2021-05-11T11:26:53+02:00</time>
      </trkpt>
      <trkpt lat="45.72869" lon="6.76984">
        <ele>1793</ele>
        <time>2021-05-11T11:26:58+02:00</time>
      </trkpt>
      <trkpt lat="45.72916" lon="6.77048">
        <ele>1805</ele>
        <time>2021-05-11T11:27:03+02:00</time>
      </trkpt>
      <trkpt lat="45.72935" lon="6.7707">
        <ele>1807</ele>
        <time>2021-05-11T11:27:08+02:00</time>
      </trkpt>
      <trkpt lat="45.73001" lon="6.77148">
        <ele>1815</ele>
        <time>2021-05-11T11:27:13+02:00</time>
      </trkpt>
      <trkpt lat="45.73007" lon="6.77257">
        <ele>1830</ele>
        <time>2021-05-11T11:27:18+02:00</time>
      </trkpt>
      <trkpt lat="45.7306" lon="6.77333">
        <ele>1832</ele>
        <time>2021-05-11T11:27:23+02:00</time>
      </trkpt>
      <trkpt lat="45.73087" lon="6.77361">
        <ele>1836</ele>
        <time>2021-05-11T11:27:28+02:00</time>
      </trkpt>
      <trkpt lat="45.7315" lon="6.77465">
        <ele>1848</ele>
        <time>2021-05-11T11:27:33+02:00</time>
      </trkpt>
      <trkpt lat="45.73211" lon="6.775">
        <ele>1850</ele>
        <time>2021-05-11T11:27:38+02:00</time>
      </trkpt>
      <trkpt lat="45.73223" lon="6.77513">
        <ele>1852</ele>
        <time>2021-05-11T11:27:43+02:00</time>
      </trkpt>
      <trkpt lat="45.73262" lon="6.7758">
        <ele>1861</ele>
        <time>2021-05-11T11:27:48+02:00</time>
      </trkpt>
      <trkpt lat="45.73267" lon="6.77612">
        <ele>1867</ele>
        <time>2021-05-11T11:27:53+02:00</time>
      </trkpt>
      <trkpt lat="45.7328" lon="6.77612">
        <ele>1865</ele>
        <time>2021-05-11T11:27:58+02:00</time>
      </trkpt>
      <trkpt lat="45.73311" lon="6.77667">
        <ele>1870</ele>
        <time>2021-05-11T11:28:03+02:00</time>
      </trkpt>
      <trkpt lat="45.73331" lon="6.77682">
        <ele>1870</ele>
        <time>2021-05-11T11:28:08+02:00</time>
      </trkpt>
      <trkpt lat="45.73337" lon="6.77703">
        <ele>1873</ele>
        <time>2021-05-11T11:28:13+02:00</time>
      </trkpt>
      <trkpt lat="45.7336" lon="6.77722">
        <ele>1875</ele>
        <time>2021-05-11T11:28:18+02:00</time>
      </trkpt>
      <trkpt lat="45.73383" lon="6.77726">
        <ele>1873</ele>
        <time>2021-05-11T11:28:23+02:00</time>
      </trkpt>
      <trkpt lat="45.7342" lon="6.77749">
        <ele>1875</ele>
        <time>2021-05-11T11:28:28+02:00</time>
      </trkpt>
      <trkpt lat="45.73433" lon="6.77745">
        <ele>1873</ele>
        <time>2021-05-11T11:28:33+02:00</time>
      </trkpt>
      <trkpt lat="45.73455" lon="6.7777">
        <ele>1878</ele>
        <time>2021-05-11T11:28:38+02:00</time>
      </trkpt>
      <trkpt lat="45.73501" lon="6.77801">
        <ele>1880</ele>
        <time>2021-05-11T11:28:43+02:00</time>
      </trkpt>
      <trkpt lat="45.73509" lon="6.7786">
        <ele>1887</ele>
        <time>2021-05-11T11:28:48+02:00</time>
      </trkpt>
      <trkpt lat="45.73549" lon="6.77822">
        <ele>1878</ele>
        <time>2021-05-11T11:28:53+02:00</time>
      </trkpt>
      <trkpt lat="45.73581" lon="6.77819">
        <ele>1875</ele>
        <time>2021-05-11T11:28:58+02:00</time>
      </trkpt>
      <trkpt lat="45.73612" lon="6.77905">
        <ele>1891</ele>
        <time>2021-05-11T11:29:03+02:00</time>
      </trkpt>
      <trkpt lat="45.73617" lon="6.77941">
        <ele>1900</ele>
        <time>2021-05-11T11:29:08+02:00</time>
      </trkpt>
      <trkpt lat="45.73545" lon="6.77918">
        <ele>1897</ele>
        <time>2021-05-11T11:29:13+02:00</time>
      </trkpt>
      <trkpt lat="45.73555" lon="6.77932">
        <ele>1901</ele>
        <time>2021-05-11T11:29:18+02:00</time>
      </trkpt>
      <trkpt lat="45.73577" lon="6.77995">
        <ele>1921</ele>
        <time>2021-05-11T11:29:23+02:00</time>
      </trkpt>
      <trkpt lat="45.73599" lon="6.78011">
        <ele>1923</ele>
        <time>2021-05-11T11:29:28+02:00</time>
      </trkpt>
      <trkpt lat="45.73607" lon="6.78058">
        <ele>1934</ele>
        <time>2021-05-11T11:29:33+02:00</time>
      </trkpt>
      <trkpt lat="45.73619" lon="6.78066">
        <ele>1934</ele>
        <time>2021-05-11T11:29:38+02:00</time>
      </trkpt>
      <trkpt lat="45.73664" lon="6.78141">
        <ele>1944</ele>
        <time>2021-05-11T11:29:43+02:00</time>
      </trkpt>
      <trkpt lat="45.73632" lon="6.78144">
        <ele>1954</ele>
        <time>2021-05-11T11:29:48+02:00</time>
      </trkpt>
      <trkpt lat="45.73531" lon="6.78118">
        <ele>1955</ele>
        <time>2021-05-11T11:29:53+02:00</time>
      </trkpt>
      <trkpt lat="45.73512" lon="6.78115">
        <ele>1953</ele>
        <time>2021-05-11T11:29:58+02:00</time>
      </trkpt>
      <trkpt lat="45.73496" lon="6.78127">
        <ele>1958</ele>
        <time>2021-05-11T11:30:03+02:00</time>
      </trkpt>
      <trkpt lat="45.73516" lon="6.7814">
        <ele>1964</ele>
        <time>2021-05-11T11:30:08+02:00</time>
      </trkpt>
      <trkpt lat="45.73574" lon="6.78195">
        <ele>1988</ele>
        <time>2021-05-11T11:30:13+02:00</time>
      </trkpt>
      <trkpt lat="45.73592" lon="6.78223">
        <ele>1999</ele>
        <time>2021-05-11T11:30:18+02:00</time>
      </trkpt>
      <trkpt lat="45.73585" lon="6.78221">
        <ele>2001</ele>
        <time>2021-05-11T11:30:23+02:00</time>
      </trkpt>
      <trkpt lat="45.73566" lon="6.78206">
        <ele>1993</ele>
        <time>2021-05-11T11:30:28+02:00</time>
      </trkpt>
      <trkpt lat="45.7349" lon="6.78206">
        <ele>1988</ele>
        <time>2021-05-11T11:30:33+02:00</time>
      </trkpt>
      <trkpt lat="45.73474" lon="6.78198">
        <ele>1980</ele>
        <time>2021-05-11T11:30:38+02:00</time>
      </trkpt>
      <trkpt lat="45.73466" lon="6.78199">
        <ele>1978</ele>
        <time>2021-05-11T11:30:43+02:00</time>
      </trkpt>
      <trkpt lat="45.73481" lon="6.78217">
        <ele>1989</ele>
        <time>2021-05-11T11:30:48+02:00</time>
      </trkpt>
      <trkpt lat="45.73459" lon="6.78216">
        <ele>1981</ele>
        <time>2021-05-11T11:30:53+02:00</time>
      </trkpt>
      <trkpt lat="45.73481" lon="6.78234">
        <ele>1995</ele>
        <time>2021-05-11T11:30:58+02:00</time>
      </trkpt>
      <trkpt lat="45.73467" lon="6.78239">
        <ele>1991</ele>
        <time>2021-05-11T11:31:03+02:00</time>
      </trkpt>
      <trkpt lat="45.73477" lon="6.7825">
        <ele>1998</ele>
        <time>2021-05-11T11:31:08+02:00</time>
      </trkpt>
      <trkpt lat="45.73523" lon="6.78262">
        <ele>2012</ele>
        <time>2021-05-11T11:31:13+02:00</time>
      </trkpt>
      <trkpt lat="45.735" lon="6.78262">
        <ele>2009</ele>
        <time>2021-05-11T11:31:18+02:00</time>
      </trkpt>
      <trkpt lat="45.73486" lon="6.78283">
        <ele>2008</ele>
        <time>2021-05-11T11:31:23+02:00</time>
      </trkpt>
      <trkpt lat="45.73467" lon="6.78279">
        <ele>2000</ele>
        <time>2021-05-11T11:31:28+02:00</time>
      </trkpt>
      <trkpt lat="45.73484" lon="6.78295">
        <ele>2010</ele>
        <time>2021-05-11T11:31:33+02:00</time>
      </trkpt>
      <trkpt lat="45.73503" lon="6.78288">
        <ele>2014</ele>
        <time>2021-05-11T11:31:38+02:00</time>
      </trkpt>
      <trkpt lat="45.73526" lon="6.78303">
        <ele>2023</ele>
        <time>2021-05-11T11:31:43+02:00</time>
      </trkpt>
      <trkpt lat="45.73556" lon="6.78343">
        <ele>2042</ele>
        <time>2021-05-11T11:31:48+02:00</time>
      </trkpt>
      <trkpt lat="45.73576" lon="6.78423">
        <ele>2067</ele>
        <time>2021-05-11T11:31:53+02:00</time>
      </trkpt>
      <trkpt lat="45.73596" lon="6.78447">
        <ele>2074</ele>
        <time>2021-05-11T11:31:58+02:00</time>
      </trkpt>
      <trkpt lat="45.73622" lon="6.78439">
        <ele>2070</ele>
        <time>2021-05-11T11:32:03+02:00</time>
      </trkpt>
      <trkpt lat="45.73624" lon="6.78456">
        <ele>2074</ele>
        <time>2021-05-11T11:32:08+02:00</time>
      </trkpt>
      <trkpt lat="45.73654" lon="6.78473">
        <ele>2075</ele>
        <time>2021-05-11T11:32:13+02:00</time>
      </trkpt>
      <trkpt lat="45.73664" lon="6.78467">
        <ele>2073</ele>
        <time>2021-05-11T11:32:18+02:00</time>
      </trkpt>
      <trkpt lat="45.73731" lon="6.78509">
        <ele>2085</ele>
        <time>2021-05-11T11:32:23+02:00</time>
      </trkpt>
      <trkpt lat="45.73749" lon="6.78526">
        <ele>2089</ele>
        <time>2021-05-11T11:32:28+02:00</time>
      </trkpt>
      <trkpt lat="45.73754" lon="6.78546">
        <ele>2092</ele>
        <time>2021-05-11T11:32:33+02:00</time>
      </trkpt>
      <trkpt lat="45.73849" lon="6.78614">
        <ele>2113</ele>
        <time>2021-05-11T11:32:38+02:00</time>
      </trkpt>
      <trkpt lat="45.73848" lon="6.78623">
        <ele>2115</ele>
        <time>2021-05-11T11:32:43+02:00</time>
      </trkpt>
      <trkpt lat="45.73871" lon="6.78635">
        <ele>2120</ele>
        <time>2021-05-11T11:32:48+02:00</time>
      </trkpt>
      <trkpt lat="45.73881" lon="6.78661">
        <ele>2129</ele>
        <time>2021-05-11T11:32:53+02:00</time>
      </trkpt>
      <trkpt lat="45.73903" lon="6.7868">
        <ele>2136</ele>
        <time>2021-05-11T11:32:58+02:00</time>
      </trkpt>
      <trkpt lat="45.73903" lon="6.78736">
        <ele>2150</ele>
        <time>2021-05-11T11:33:03+02:00</time>
      </trkpt>
      <trkpt lat="45.7394" lon="6.78813">
        <ele>2161</ele>
        <time>2021-05-11T11:33:08+02:00</time>
      </trkpt>
      <trkpt lat="45.73938" lon="6.7885">
        <ele>2170</ele>
        <time>2021-05-11T11:33:13+02:00</time>
      </trkpt>
      <trkpt lat="45.73943" lon="6.78849">
        <ele>2168</ele>
        <time>2021-05-11T11:33:18+02:00</time>
      </trkpt>
      <trkpt lat="45.73971" lon="6.7894">
        <ele>2174</ele>
        <time>2021-05-11T11:33:23+02:00</time>
      </trkpt>
      <trkpt lat="45.73977" lon="6.78955">
        <ele>2176</ele>
        <time>2021-05-11T11:33:28+02:00</time>
      </trkpt>
      <trkpt lat="45.74006" lon="6.78918">
        <ele>2154</ele>
        <time>2021-05-11T11:33:33+02:00</time>
      </trkpt>
      <trkpt lat="45.74051" lon="6.78919">
        <ele>2160</ele>
        <time>2021-05-11T11:33:38+02:00</time>
      </trkpt>
      <trkpt lat="45.74057" lon="6.78909">
        <ele>2158</ele>
        <time>2021-05-11T11:33:43+02:00</time>
      </trkpt>
      <trkpt lat="45.74064" lon="6.78911">
        <ele>2159</ele>
        <time>2021-05-11T11:33:48+02:00</time>
      </trkpt>
      <trkpt lat="45.74083" lon="6.78927">
        <ele>2166</ele>
        <time>2021-05-11T11:33:53+02:00</time>
      </trkpt>
      <trkpt lat="45.74114" lon="6.78942">
        <ele>2168</ele>
        <time>2021-05-11T11:33:58+02:00</time>
      </trkpt>
      <trkpt lat="45.74146" lon="6.79">
        <ele>2183</ele>
        <time>2021-05-11T11:34:03+02:00</time>
      </trkpt>
      <trkpt lat="45.74157" lon="6.79077">
        <ele>2199</ele>
        <time>2021-05-11T11:34:08+02:00</time>
      </trkpt>
      <trkpt lat="45.7418" lon="6.79129">
        <ele>2207</ele>
        <time>2021-05-11T11:34:13+02:00</time>
      </trkpt>
      <trkpt lat="45.74192" lon="6.79208">
        <ele>2220</ele>
        <time>2021-05-11T11:34:18+02:00</time>
      </trkpt>
      <trkpt lat="45.74239" lon="6.79259">
        <ele>2221</ele>
        <time>2021-05-11T11:34:23+02:00</time>
      </trkpt>
      <trkpt lat="45.74247" lon="6.79261">
        <ele>2220</ele>
        <time>2021-05-11T11:34:28+02:00</time>
      </trkpt>
      <trkpt lat="45.74275" lon="6.79296">
        <ele>2228</ele>
        <time>2021-05-11T11:34:33+02:00</time>
      </trkpt>
      <trkpt lat="45.74284" lon="6.793">
        <ele>2230</ele>
        <time>2021-05-11T11:34:38+02:00</time>
      </trkpt>
      <trkpt lat="45.74295" lon="6.79291">
        <ele>2230</ele>
        <time>2021-05-11T11:34:43+02:00</time>
      </trkpt>
      <trkpt lat="45.74303" lon="6.79315">
        <ele>2234</ele>
        <time>2021-05-11T11:34:48+02:00</time>
      </trkpt>
      <trkpt lat="45.74331" lon="6.79335">
        <ele>2240</ele>
        <time>2021-05-11T11:34:53+02:00</time>
      </trkpt>
      <trkpt lat="45.74338" lon="6.79325">
        <ele>2240</ele>
        <time>2021-05-11T11:34:58+02:00</time>
      </trkpt>
      <trkpt lat="45.7435" lon="6.79323">
        <ele>2243</ele>
        <time>2021-05-11T11:35:03+02:00</time>
      </trkpt>
      <trkpt lat="45.74352" lon="6.79295">
        <ele>2240</ele>
        <time>2021-05-11T11:35:08+02:00</time>
      </trkpt>
      <trkpt lat="45.74371" lon="6.79296">
        <ele>2246</ele>
        <time>2021-05-11T11:35:13+02:00</time>
      </trkpt>
      <trkpt lat="45.74393" lon="6.79244">
        <ele>2247</ele>
        <time>2021-05-11T11:35:18+02:00</time>
      </trkpt>
      <trkpt lat="45.74399" lon="6.79217">
        <ele>2244</ele>
        <time>2021-05-11T11:35:23+02:00</time>
      </trkpt>
      <trkpt lat="45.74475" lon="6.79159">
        <ele>2267</ele>
        <time>2021-05-11T11:35:28+02:00</time>
      </trkpt>
      <trkpt lat="45.74504" lon="6.79152">
        <ele>2277</ele>
        <time>2021-05-11T11:35:33+02:00</time>
      </trkpt>
      <trkpt lat="45.74523" lon="6.79131">
        <ele>2278</ele>
        <time>2021-05-11T11:35:38+02:00</time>
      </trkpt>
      <trkpt lat="45.74572" lon="6.79147">
        <ele>2294</ele>
        <time>2021-05-11T11:35:43+02:00</time>
      </trkpt>
      <trkpt lat="45.746" lon="6.79179">
        <ele>2303</ele>
        <time>2021-05-11T11:35:48+02:00</time>
      </trkpt>
      <trkpt lat="45.74608" lon="6.79263">
        <ele>2317</ele>
        <time>2021-05-11T11:35:53+02:00</time>
      </trkpt>
      <trkpt lat="45.74625" lon="6.79306">
        <ele>2324</ele>
        <time>2021-05-11T11:35:58+02:00</time>
      </trkpt>
      <trkpt lat="45.74628" lon="6.79343">
        <ele>2329</ele>
        <time>2021-05-11T11:36:03+02:00</time>
      </trkpt>
      <trkpt lat="45.74651" lon="6.7939">
        <ele>2337</ele>
        <time>2021-05-11T11:36:08+02:00</time>
      </trkpt>
      <trkpt lat="45.74689" lon="6.79527">
        <ele>2353</ele>
        <time>2021-05-11T11:36:13+02:00</time>
      </trkpt>
      <trkpt lat="45.7473" lon="6.79598">
        <ele>2363</ele>
        <time>2021-05-11T11:36:18+02:00</time>
      </trkpt>
      <trkpt lat="45.74759" lon="6.7969">
        <ele>2374</ele>
        <time>2021-05-11T11:36:23+02:00</time>
      </trkpt>
      <trkpt lat="45.74795" lon="6.79755">
        <ele>2382</ele>
        <time>2021-05-11T11:36:28+02:00</time>
      </trkpt>
      <trkpt lat="45.74822" lon="6.79771">
        <ele>2388</ele>
        <time>2021-05-11T11:36:33+02:00</time>
      </trkpt>
      <trkpt lat="45.74856" lon="6.7984">
        <ele>2402</ele>
        <time>2021-05-11T11:36:38+02:00</time>
      </trkpt>
      <trkpt lat="45.74888" lon="6.79972">
        <ele>2421</ele>
        <time>2021-05-11T11:36:43+02:00</time>
      </trkpt>
      <trkpt lat="45.74945" lon="6.80148">
        <ele>2447</ele>
        <time>2021-05-11T11:36:48+02:00</time>
      </trkpt>
      <trkpt lat="45.74958" lon="6.8022">
        <ele>2455</ele>
        <time>2021-05-11T11:36:53+02:00</time>
      </trkpt>
      <trkpt lat="45.75016" lon="6.80363">
        <ele>2477</ele>
        <time>2021-05-11T11:36:58+02:00</time>
      </trkpt>
      <trkpt lat="45.75053" lon="6.80437">
        <ele>2486</ele>
        <time>2021-05-11T11:37:03+02:00</time>
      </trkpt>
      <trkpt lat="45.75074" lon="6.8047">
        <ele>2490</ele>
        <time>2021-05-11T11:37:08+02:00</time>
      </trkpt>
      <trkpt lat="45.75089" lon="6.8053">
        <ele>2496</ele>
        <time>2021-05-11T11:37:13+02:00</time>
      </trkpt>
      <trkpt lat="45.75134" lon="6.8062">
        <ele>2508</ele>
        <time>2021-05-11T11:37:18+02:00</time>
      </trkpt>
      <trkpt lat="45.75132" lon="6.80721">
        <ele>2512</ele>
        <time>2021-05-11T11:37:23+02:00</time>
      </trkpt>
      <trkpt lat="45.75134" lon="6.8062">
        <ele>2508</ele>
        <time>2021-05-11T11:37:28+02:00</time>
      </trkpt>
      <trkpt lat="45.75089" lon="6.8053">
        <ele>2496</ele>
        <time>2021-05-11T11:37:33+02:00</time>
      </trkpt>
      <trkpt lat="45.75074" lon="6.8047">
        <ele>2490</ele>
        <time>2021-05-11T11:37:38+02:00</time>
      </trkpt>
      <trkpt lat="45.75053" lon="6.80437">
        <ele>2486</ele>
        <time>2021-05-11T11:37:43+02:00</time>
      </trkpt>
      <trkpt lat="45.75016" lon="6.80363">
        <ele>2477</ele>
        <time>2021-05-11T11:37:48+02:00</time>
      </trkpt>
      <trkpt lat="45.74958" lon="6.8022">
        <ele>2455</ele>
        <time>2021-05-11T11:37:53+02:00</time>
      </trkpt>
      <trkpt lat="45.74945" lon="6.80148">
        <ele>2447</ele>
        <time>2021-05-11T11:37:58+02:00</time>
      </trkpt>
      <trkpt lat="45.74888" lon="6.79972">
        <ele>2421</ele>
        <time>2021-05-11T11:38:03+02:00</time>
      </trkpt>
      <trkpt lat="45.74856" lon="6.7984">
        <ele>2402</ele>
        <time>2021-05-11T11:38:08+02:00</time>
      </trkpt>
      <trkpt lat="45.74822" lon="6.79771">
        <ele>2388</ele>
        <time>2021-05-11T11:38:13+02:00</time>
      </trkpt>
      <trkpt lat="45.74795" lon="6.79755">
        <ele>2382</ele>
        <time>2021-05-11T11:38:18+02:00</time>
      </trkpt>
      <trkpt lat="45.74759" lon="6.7969">
        <ele>2374</ele>
        <time>2021-05-11T11:38:23+02:00</time>
      </trkpt>
      <trkpt lat="45.7473" lon="6.79598">
        <ele>2363</ele>
        <time>2021-05-11T11:38:28+02:00</time>
      </trkpt>
      <trkpt lat="45.74689" lon="6.79527">
        <ele>2353</ele>
        <time>2021-05-11T11:38:33+02:00</time>
      </trkpt>
      <trkpt lat="45.74651" lon="6.7939">
        <ele>2337</ele>
        <time>2021-05-11T11:38:38+02:00</time>
      </trkpt>
      <trkpt lat="45.74628" lon="6.79343">
        <ele>2329</ele>
        <time>2021-05-11T11:38:43+02:00</time>
      </trkpt>
      <trkpt lat="45.74625" lon="6.79306">
        <ele>2324</ele>
        <time>2021-05-11T11:38:48+02:00</time>
      </trkpt>
      <trkpt lat="45.74608" lon="6.79263">
        <ele>2317</ele>
        <time>2021-05-11T11:38:53+02:00</time>
      </trkpt>
      <trkpt lat="45.746" lon="6.79179">
        <ele>2303</ele>
        <time>2021-05-11T11:38:58+02:00</time>
      </trkpt>
      <trkpt lat="45.74572" lon="6.79147">
        <ele>2294</ele>
        <time>2021-05-11T11:39:03+02:00</time>
      </trkpt>
      <trkpt lat="45.74523" lon="6.79131">
        <ele>2278</ele>
        <time>2021-05-11T11:39:08+02:00</time>
      </trkpt>
      <trkpt lat="45.74504" lon="6.79152">
        <ele>2277</ele>
        <time>2021-05-11T11:39:13+02:00</time>
      </trkpt>
      <trkpt lat="45.74475" lon="6.79159">
        <ele>2267</ele>
        <time>2021-05-11T11:39:18+02:00</time>
      </trkpt>
      <trkpt lat="45.74399" lon="6.79217">
        <ele>2244</ele>
        <time>2021-05-11T11:39:23+02:00</time>
      </trkpt>
      <trkpt lat="45.74393" lon="6.79244">
        <ele>2247</ele>
        <time>2021-05-11T11:39:28+02:00</time>
      </trkpt>
      <trkpt lat="45.74371" lon="6.79296">
        <ele>2246</ele>
        <time>2021-05-11T11:39:33+02:00</time>
      </trkpt>
      <trkpt lat="45.74352" lon="6.79295">
        <ele>2240</ele>
        <time>2021-05-11T11:39:38+02:00</time>
      </trkpt>
      <trkpt lat="45.7435" lon="6.79323">
        <ele>2243</ele>
        <time>2021-05-11T11:39:43+02:00</time>
      </trkpt>
      <trkpt lat="45.74338" lon="6.79325">
        <ele>2240</ele>
        <time>2021-05-11T11:39:48+02:00</time>
      </trkpt>
      <trkpt lat="45.74331" lon="6.79335">
        <ele>2240</ele>
        <time>2021-05-11T11:39:53+02:00</time>
      </trkpt>
      <trkpt lat="45.74303" lon="6.79315">
        <ele>2234</ele>
        <time>2021-05-11T11:39:58+02:00</time>
      </trkpt>
      <trkpt lat="45.74295" lon="6.79291">
        <ele>2230</ele>
        <time>2021-05-11T11:40:03+02:00</time>
      </trkpt>
      <trkpt lat="45.74284" lon="6.793">
        <ele>2230</ele>
        <time>2021-05-11T11:40:08+02:00</time>
      </trkpt>
      <trkpt lat="45.74275" lon="6.79296">
        <ele>2228</ele>
        <time>2021-05-11T11:40:13+02:00</time>
      </trkpt>
      <trkpt lat="45.74247" lon="6.79261">
        <ele>2220</ele>
        <time>2021-05-11T11:40:18+02:00</time>
      </trkpt>
      <trkpt lat="45.74239" lon="6.79259">
        <ele>2221</ele>
        <time>2021-05-11T11:40:23+02:00</time>
      </trkpt>
      <trkpt lat="45.74192" lon="6.79208">
        <ele>2220</ele>
        <time>2021-05-11T11:40:28+02:00</time>
      </trkpt>
      <trkpt lat="45.7418" lon="6.79129">
        <ele>2207</ele>
        <time>2021-05-11T11:40:33+02:00</time>
      </trkpt>
      <trkpt lat="45.74157" lon="6.79077">
        <ele>2199</ele>
        <time>2021-05-11T11:40:38+02:00</time>
      </trkpt>
      <trkpt lat="45.74146" lon="6.79">
        <ele>2183</ele>
        <time>2021-05-11T11:40:43+02:00</time>
      </trkpt>
      <trkpt lat="45.74114" lon="6.78942">
        <ele>2168</ele>
        <time>2021-05-11T11:40:48+02:00</time>
      </trkpt>
      <trkpt lat="45.74083" lon="6.78927">
        <ele>2166</ele>
        <time>2021-05-11T11:40:53+02:00</time>
      </trkpt>
      <trkpt lat="45.74064" lon="6.78911">
        <ele>2159</ele>
        <time>2021-05-11T11:40:58+02:00</time>
      </trkpt>
      <trkpt lat="45.74057" lon="6.78909">
        <ele>2158</ele>
        <time>2021-05-11T11:41:03+02:00</time>
      </trkpt>
      <trkpt lat="45.74051" lon="6.78919">
        <ele>2160</ele>
        <time>2021-05-11T11:41:08+02:00</time>
      </trkpt>
      <trkpt lat="45.74006" lon="6.78918">
        <ele>2154</ele>
        <time>2021-05-11T11:41:13+02:00</time>
      </trkpt>
      <trkpt lat="45.73977" lon="6.78955">
        <ele>2176</ele>
        <time>2021-05-11T11:41:18+02:00</time>
      </trkpt>
      <trkpt lat="45.73971" lon="6.7894">
        <ele>2174</ele>
        <time>2021-05-11T11:41:23+02:00</time>
      </trkpt>
      <trkpt lat="45.73943" lon="6.78849">
        <ele>2168</ele>
        <time>2021-05-11T11:41:28+02:00</time>
      </trkpt>
      <trkpt lat="45.73938" lon="6.7885">
        <ele>2170</ele>
        <time>2021-05-11T11:41:33+02:00</time>
      </trkpt>
      <trkpt lat="45.7394" lon="6.78813">
        <ele>2161</ele>
        <time>2021-05-11T11:41:38+02:00</time>
      </trkpt>
      <trkpt lat="45.73903" lon="6.78736">
        <ele>2150</ele>
        <time>2021-05-11T11:41:43+02:00</time>
      </trkpt>
      <trkpt lat="45.73903" lon="6.7868">
        <ele>2136</ele>
        <time>2021-05-11T11:41:48+02:00</time>
      </trkpt>
      <trkpt lat="45.73881" lon="6.78661">
        <ele>2129</ele>
        <time>2021-05-11T11:41:53+02:00</time>
      </trkpt>
      <trkpt lat="45.73871" lon="6.78635">
        <ele>2120</ele>
        <time>2021-05-11T11:41:58+02:00</time>
      </trkpt>
      <trkpt lat="45.73848" lon="6.78623">
        <ele>2115</ele>
        <time>2021-05-11T11:42:03+02:00</time>
      </trkpt>
      <trkpt lat="45.73849" lon="6.78614">
        <ele>2113</ele>
        <time>2021-05-11T11:42:08+02:00</time>
      </trkpt>
      <trkpt lat="45.73754" lon="6.78546">
        <ele>2092</ele>
        <time>2021-05-11T11:42:13+02:00</time>
      </trkpt>
      <trkpt lat="45.73749" lon="6.78526">
        <ele>2089</ele>
        <time>2021-05-11T11:42:18+02:00</time>
      </trkpt>
      <trkpt lat="45.73731" lon="6.78509">
        <ele>2085</ele>
        <time>2021-05-11T11:42:23+02:00</time>
      </trkpt>
      <trkpt lat="45.73664" lon="6.78467">
        <ele>2073</ele>
        <time>2021-05-11T11:42:28+02:00</time>
      </trkpt>
      <trkpt lat="45.73654" lon="6.78473">
        <ele>2075</ele>
        <time>2021-05-11T11:42:33+02:00</time>
      </trkpt>
      <trkpt lat="45.73624" lon="6.78456">
        <ele>2074</ele>
        <time>2021-05-11T11:42:38+02:00</time>
      </trkpt>
      <trkpt lat="45.73622" lon="6.78439">
        <ele>2070</ele>
        <time>2021-05-11T11:42:43+02:00</time>
      </trkpt>
      <trkpt lat="45.73596" lon="6.78447">
        <ele>2074</ele>
        <time>2021-05-11T11:42:48+02:00</time>
      </trkpt>
      <trkpt lat="45.73576" lon="6.78423">
        <ele>2067</ele>
        <time>2021-05-11T11:42:53+02:00</time>
      </trkpt>
      <trkpt lat="45.73556" lon="6.78343">
        <ele>2042</ele>
        <time>2021-05-11T11:42:58+02:00</time>
      </trkpt>
      <trkpt lat="45.73526" lon="6.78303">
        <ele>2023</ele>
        <time>2021-05-11T11:43:03+02:00</time>
      </trkpt>
      <trkpt lat="45.73503" lon="6.78288">
        <ele>2014</ele>
        <time>2021-05-11T11:43:08+02:00</time>
      </trkpt>
      <trkpt lat="45.73484" lon="6.78295">
        <ele>2010</ele>
        <time>2021-05-11T11:43:13+02:00</time>
      </trkpt>
      <trkpt lat="45.73467" lon="6.78279">
        <ele>2000</ele>
        <time>2021-05-11T11:43:18+02:00</time>
      </trkpt>
      <trkpt lat="45.73486" lon="6.78283">
        <ele>2008</ele>
        <time>2021-05-11T11:43:23+02:00</time>
      </trkpt>
      <trkpt lat="45.735" lon="6.78262">
        <ele>2009</ele>
        <time>2021-05-11T11:43:28+02:00</time>
      </trkpt>
      <trkpt lat="45.73523" lon="6.78262">
        <ele>2012</ele>
        <time>2021-05-11T11:43:33+02:00</time>
      </trkpt>
      <trkpt lat="45.73477" lon="6.7825">
        <ele>1998</ele>
        <time>2021-05-11T11:43:38+02:00</time>
      </trkpt>
      <trkpt lat="45.73467" lon="6.78239">
        <ele>1991</ele>
        <time>2021-05-11T11:43:43+02:00</time>
      </trkpt>
      <trkpt lat="45.73481" lon="6.78234">
        <ele>1995</ele>
        <time>2021-05-11T11:43:48+02:00</time>
      </trkpt>
      <trkpt lat="45.73459" lon="6.78216">
        <ele>1981</ele>
        <time>2021-05-11T11:43:53+02:00</time>
      </trkpt>
      <trkpt lat="45.73481" lon="6.78217">
        <ele>1989</ele>
        <time>2021-05-11T11:43:58+02:00</time>
      </trkpt>
      <trkpt lat="45.73466" lon="6.78199">
        <ele>1978</ele>
        <time>2021-05-11T11:44:03+02:00</time>
      </trkpt>
      <trkpt lat="45.73474" lon="6.78198">
        <ele>1980</ele>
        <time>2021-05-11T11:44:08+02:00</time>
      </trkpt>
      <trkpt lat="45.7349" lon="6.78206">
        <ele>1988</ele>
        <time>2021-05-11T11:44:13+02:00</time>
      </trkpt>
      <trkpt lat="45.73566" lon="6.78206">
        <ele>1993</ele>
        <time>2021-05-11T11:44:18+02:00</time>
      </trkpt>
      <trkpt lat="45.73585" lon="6.78221">
        <ele>2001</ele>
        <time>2021-05-11T11:44:23+02:00</time>
      </trkpt>
      <trkpt lat="45.73592" lon="6.78223">
        <ele>1999</ele>
        <time>2021-05-11T11:44:28+02:00</time>
      </trkpt>
      <trkpt lat="45.73574" lon="6.78195">
        <ele>1988</ele>
        <time>2021-05-11T11:44:33+02:00</time>
      </trkpt>
      <trkpt lat="45.73516" lon="6.7814">
        <ele>1964</ele>
        <time>2021-05-11T11:44:38+02:00</time>
      </trkpt>
      <trkpt lat="45.73496" lon="6.78127">
        <ele>1958</ele>
        <time>2021-05-11T11:44:43+02:00</time>
      </trkpt>
      <trkpt lat="45.73512" lon="6.78115">
        <ele>1953</ele>
        <time>2021-05-11T11:44:48+02:00</time>
      </trkpt>
      <trkpt lat="45.73531" lon="6.78118">
        <ele>1955</ele>
        <time>2021-05-11T11:44:53+02:00</time>
      </trkpt>
      <trkpt lat="45.73632" lon="6.78144">
        <ele>1954</ele>
        <time>2021-05-11T11:44:58+02:00</time>
      </trkpt>
      <trkpt lat="45.73664" lon="6.78141">
        <ele>1944</ele>
        <time>2021-05-11T11:45:03+02:00</time>
      </trkpt>
      <trkpt lat="45.73619" lon="6.78066">
        <ele>1934</ele>
        <time>2021-05-11T11:45:08+02:00</time>
      </trkpt>
      <trkpt lat="45.73607" lon="6.78058">
        <ele>1934</ele>
        <time>2021-05-11T11:45:13+02:00</time>
      </trkpt>
      <trkpt lat="45.73599" lon="6.78011">
        <ele>1923</ele>
        <time>2021-05-11T11:45:18+02:00</time>
      </trkpt>
      <trkpt lat="45.73577" lon="6.77995">
        <ele>1921</ele>
        <time>2021-05-11T11:45:23+02:00</time>
      </trkpt>
      <trkpt lat="45.73555" lon="6.77932">
        <ele>1901</ele>
        <time>2021-05-11T11:45:28+02:00</time>
      </trkpt>
      <trkpt lat="45.73545" lon="6.77918">
        <ele>1897</ele>
        <time>2021-05-11T11:45:33+02:00</time>
      </trkpt>
      <trkpt lat="45.73617" lon="6.77941">
        <ele>1900</ele>
        <time>2021-05-11T11:45:38+02:00</time>
      </trkpt>
      <trkpt lat="45.73612" lon="6.77905">
        <ele>1891</ele>
        <time>2021-05-11T11:45:43+02:00</time>
      </trkpt>
      <trkpt lat="45.73581" lon="6.77819">
        <ele>1875</ele>
        <time>2021-05-11T11:45:48+02:00</time>
      </trkpt>
      <trkpt lat="45.73549" lon="6.77822">
        <ele>1878</ele>
        <time>2021-05-11T11:45:53+02:00</time>
      </trkpt>
      <trkpt lat="45.73509" lon="6.7786">
        <ele>1887</ele>
        <time>2021-05-11T11:45:58+02:00</time>
      </trkpt>
      <trkpt lat="45.73501" lon="6.77801">
        <ele>1880</ele>
        <time>2021-05-11T11:46:03+02:00</time>
      </trkpt>
      <trkpt lat="45.73455" lon="6.7777">
        <ele>1878</ele>
        <time>2021-05-11T11:46:08+02:00</time>
      </trkpt>
      <trkpt lat="45.73433" lon="6.77745">
        <ele>1873</ele>
        <time>2021-05-11T11:46:13+02:00</time>
      </trkpt>
      <trkpt lat="45.7342" lon="6.77749">
        <ele>1875</ele>
        <time>2021-05-11T11:46:18+02:00</time>
      </trkpt>
      <trkpt lat="45.73383" lon="6.77726">
        <ele>1873</ele>
        <time>2021-05-11T11:46:23+02:00</time>
      </trkpt>
      <trkpt lat="45.7336" lon="6.77722">
        <ele>1875</ele>
        <time>2021-05-11T11:46:28+02:00</time>
      </trkpt>
      <trkpt lat="45.73337" lon="6.77703">
        <ele>1873</ele>
        <time>2021-05-11T11:46:33+02:00</time>
      </trkpt>
      <trkpt lat="45.73331" lon="6.77682">
        <ele>1870</ele>
        <time>2021-05-11T11:46:38+02:00</time>
      </trkpt>
      <trkpt lat="45.73311" lon="6.77667">
        <ele>1870</ele>
        <time>2021-05-11T11:46:43+02:00</time>
      </trkpt>
      <trkpt lat="45.7328" lon="6.77612">
        <ele>1865</ele>
        <time>2021-05-11T11:46:48+02:00</time>
      </trkpt>
      <trkpt lat="45.73267" lon="6.77612">
        <ele>1867</ele>
        <time>2021-05-11T11:46:53+02:00</time>
      </trkpt>
      <trkpt lat="45.73262" lon="6.7758">
        <ele>1861</ele>
        <time>2021-05-11T11:46:58+02:00</time>
      </trkpt>
      <trkpt lat="45.73223" lon="6.77513">
        <ele>1852</ele>
        <time>2021-05-11T11:47:03+02:00</time>
      </trkpt>
      <trkpt lat="45.73211" lon="6.775">
        <ele>1850</ele>
        <time>2021-05-11T11:47:08+02:00</time>
      </trkpt>
      <trkpt lat="45.7315" lon="6.77465">
        <ele>1848</ele>
        <time>2021-05-11T11:47:13+02:00</time>
      </trkpt>
      <trkpt lat="45.73087" lon="6.77361">
        <ele>1836</ele>
        <time>2021-05-11T11:47:18+02:00</time>
      </trkpt>
      <trkpt lat="45.7306" lon="6.77333">
        <ele>1832</ele>
        <time>2021-05-11T11:47:23+02:00</time>
      </trkpt>
      <trkpt lat="45.73007" lon="6.77257">
        <ele>1830</ele>
        <time>2021-05-11T11:47:28+02:00</time>
      </trkpt>
      <trkpt lat="45.73001" lon="6.77148">
        <ele>1815</ele>
        <time>2021-05-11T11:47:33+02:00</time>
      </trkpt>
      <trkpt lat="45.72935" lon="6.7707">
        <ele>1807</ele>
        <time>2021-05-11T11:47:38+02:00</time>
      </trkpt>
      <trkpt lat="45.72916" lon="6.77048">
        <ele>1805</ele>
        <time>2021-05-11T11:47:43+02:00</time>
      </trkpt>
      <trkpt lat="45.72869" lon="6.76984">
        <ele>1793</ele>
        <time>2021-05-11T11:47:48+02:00</time>
      </trkpt>
      <trkpt lat="45.72825" lon="6.76966">
        <ele>1791</ele>
        <time>2021-05-11T11:47:53+02:00</time>
      </trkpt>
      <trkpt lat="45.72801" lon="6.76961">
        <ele>1792</ele>
        <time>2021-05-11T11:47:58+02:00</time>
      </trkpt>
      <trkpt lat="45.72737" lon="6.76908">
        <ele>1785</ele>
        <time>2021-05-11T11:48:03+02:00</time>
      </trkpt>
      <trkpt lat="45.72724" lon="6.76895">
        <ele>1785</ele>
        <time>2021-05-11T11:48:08+02:00</time>
      </trkpt>
      <trkpt lat="45.72745" lon="6.76763">
        <ele>1782</ele>
        <time>2021-05-11T11:48:13+02:00</time>
      </trkpt>
      <trkpt lat="45.72739" lon="6.76742">
        <ele>1783</ele>
        <time>2021-05-11T11:48:18+02:00</time>
      </trkpt>
      <trkpt lat="45.72771" lon="6.76732">
        <ele>1787</ele>
        <time>2021-05-11T11:48:23+02:00</time>
      </trkpt>
      <trkpt lat="45.72801" lon="6.7677">
        <ele>1787</ele>
        <time>2021-05-11T11:48:28+02:00</time>
      </trkpt>
    </trkseg>
  </trk>
</gpx>